»·PEaware :: N2AW KSNA-KCRQ

N2AW :: KSNA-KCRQ

FLIGHT INFORMATION

Flight Status: Arrived
Operator: Privately registered:
United States
More flights under this callsign
Pilot: Austin W. (7615)
Aircraft: SOCATA TBM-900
(TBM9)
More flights by this aircraft type
Origin: KSNA John Wayne-Orange Co
United States
Destination: KCRQ McClellan-Palomar
United States
More flights between these airports :: More routes between these airports
Route: V25 PACIF V208 OCN
File this flight plan on PilotEdge
Remarks: I2
Altitude:
(Current/Filed)
7,000ft
Speed:
(Current/Filed)
115kts
Departed: 02-Dec-19 09:33 PM
Arrived: 02-Dec-19 09:57 PM
Distance/Time
Traveled:
0nm/0:24
Distance/Time
To Go:
Arrived

Flight Plot

Page will automatically refresh every two minutes.


Map Options




Map Legend


Flown Route
Filed Route
Departure Airport
Arrival Airport
Navaid (VOR, NDB)
Fix

Horizontal Profiles

Position Reports

Time Latitude Longitude Heading Altitude Ground
Speed
02-Dec-19 21:12 33.670849 -117.874107 23 59ft 0kts
02-Dec-19 21:13 33.670849 -117.874107 23 59ft 0kts
02-Dec-19 21:14 33.670849 -117.874107 23 59ft 0kts
02-Dec-19 21:15 33.670849 -117.874107 23 59ft 0kts
02-Dec-19 21:16 33.670849 -117.874107 23 59ft 0kts
02-Dec-19 21:17 33.670849 -117.874107 23 59ft 0kts
02-Dec-19 21:18 33.670849 -117.874107 23 59ft 0kts
02-Dec-19 21:19 33.670849 -117.874107 23 59ft 0kts
02-Dec-19 21:20 33.670849 -117.874107 23 59ft 0kts
02-Dec-19 21:21 33.670849 -117.874107 23 59ft 0kts
02-Dec-19 21:22 33.670849 -117.874107 23 59ft 0kts
02-Dec-19 21:23 33.670849 -117.874107 23 59ft 0kts
02-Dec-19 21:24 33.670849 -117.874107 23 59ft 0kts
02-Dec-19 21:25 33.670849 -117.874107 23 59ft 0kts
02-Dec-19 21:26 33.670849 -117.874107 23 59ft 0kts
02-Dec-19 21:27 33.670849 -117.874107 23 59ft 0kts
02-Dec-19 21:28 33.672603 -117.872284 27 59ft 23kts
02-Dec-19 21:29 33.678413 -117.868599 27 59ft 21kts
02-Dec-19 21:30 33.681238 -117.866502 114 59ft 0kts
02-Dec-19 21:31 33.681183 -117.866354 114 59ft 7kts
02-Dec-19 21:32 33.662302 -117.875022 187 812ft 132kts
02-Dec-19 21:33 33.616199 -117.881613 186 2054ft 188kts
02-Dec-19 21:34 33.560183 -117.889667 186 3314ft 212kts
02-Dec-19 21:35 33.501006 -117.898048 175 4450ft 217kts
02-Dec-19 21:36 33.459752 -117.848126 128 5464ft 215kts
02-Dec-19 21:37 33.411426 -117.808427 155 6453ft 215kts
02-Dec-19 21:38 33.353739 -117.779935 157 7008ft 236kts
02-Dec-19 21:39 33.291733 -117.748764 138 6972ft 247kts
02-Dec-19 21:40 33.255295 -117.678636 121 7009ft 248kts
02-Dec-19 21:41 33.219895 -117.607564 121 7008ft 249kts
02-Dec-19 21:42 33.184759 -117.536947 121 7007ft 249kts
02-Dec-19 21:43 33.149036 -117.465039 121 7008ft 249kts
02-Dec-19 21:44 33.113669 -117.393898 121 7008ft 250kts
02-Dec-19 21:45 33.078046 -117.322310 121 7006ft 250kts
02-Dec-19 21:46 33.075276 -117.244581 76 6557ft 245kts
02-Dec-19 21:47 33.087505 -117.164899 81 5554ft 244kts
02-Dec-19 21:48 33.098287 -117.085737 81 5006ft 233kts
02-Dec-19 21:49 33.131572 -117.033087 344 4593ft 223kts
02-Dec-19 21:50 33.153792 -117.092104 282 3352ft 182kts
02-Dec-19 21:51 33.149628 -117.148080 259 2537ft 149kts
02-Dec-19 21:52 33.142983 -117.187630 257 1889ft 109kts
02-Dec-19 21:53 33.137163 -117.223294 261 1191ft 110kts
02-Dec-19 21:54 33.131449 -117.259284 261 612ft 109kts
02-Dec-19 21:55 33.127290 -117.286141 258 334ft 46kts
02-Dec-19 21:56 33.127044 -117.282533 79 334ft 22kts
02-Dec-19 21:57 33.127070 -117.277226 71 334ft 0kts
02-Dec-19 21:58 33.127070 -117.277226 71 334ft 0kts
02-Dec-19 21:59 33.127070 -117.277226 71 334ft 0kts
02-Dec-19 22:00 33.677344 -117.871131 208 59ft 0kts
02-Dec-19 22:01 33.677344 -117.871131 208 59ft 0kts
02-Dec-19 22:02 33.677344 -117.871131 208 59ft 0kts
02-Dec-19 22:03 33.677344 -117.871131 208 59ft 0kts
02-Dec-19 22:04 33.677344 -117.871131 208 59ft 0kts
02-Dec-19 22:05 33.677344 -117.871131 208 59ft 0kts
02-Dec-19 22:06 33.677344 -117.871131 208 59ft 0kts
02-Dec-19 22:07 33.677344 -117.871131 208 59ft 0kts
02-Dec-19 22:08 33.677344 -117.871131 208 59ft 0kts

Navigation Log

Ident Type
Flight plan parsing failed, navigation log unavailable